createdAt,value
2016-10-26T00:01:10.483Z,1018.26
2016-10-26T00:02:20.852Z,1018.27
2016-10-26T00:03:32.129Z,1018.26
2016-10-26T00:04:44.642Z,1018.24
2016-10-26T00:05:56.459Z,1018.26
2016-10-26T00:07:09.186Z,1018.24
2016-10-26T00:08:21.569Z,1018.21
2016-10-26T00:09:33.218Z,1018.2
2016-10-26T00:10:44.480Z,1018.18
2016-10-26T00:11:56.574Z,1018.19
2016-10-26T00:13:08.516Z,1018.2
2016-10-26T00:14:19.830Z,1018.19
2016-10-26T00:15:31.519Z,1018.17
2016-10-26T00:16:42.934Z,1018.15
2016-10-26T00:17:54.465Z,1018.14
2016-10-26T00:19:06.301Z,1018.12
2016-10-26T00:20:17.021Z,1018.19
2016-10-26T00:21:30.034Z,1018.14
2016-10-26T00:22:41.570Z,1018.14
2016-10-26T00:23:52.994Z,1018.15
2016-10-26T00:25:05.552Z,1018.17
2016-10-26T00:26:17.821Z,1018.14
2016-10-26T00:27:28.483Z,1018.17
2016-10-26T00:28:40.643Z,1018.16
2016-10-26T00:29:53.373Z,1018.17
2016-10-26T00:31:03.513Z,1018.19
2016-10-26T00:32:15.636Z,1018.19
2016-10-26T00:33:27.188Z,1018.25
2016-10-26T00:34:39.460Z,1018.22
2016-10-26T00:35:51.412Z,1018.22
2016-10-26T00:37:03.997Z,1018.25
2016-10-26T00:38:15.666Z,1018.26
2016-10-26T00:39:27.768Z,1018.27
2016-10-26T00:40:39.681Z,1018.33
2016-10-26T00:41:51.219Z,1018.35
2016-10-26T00:43:03.141Z,1018.32
2016-10-26T00:44:15.108Z,1018.32
2016-10-26T00:45:27.219Z,1018.35
2016-10-26T00:46:39.338Z,1018.32
2016-10-26T00:47:51.446Z,1018.33
2016-10-26T00:49:02.087Z,1018.31
2016-10-26T00:50:14.028Z,1018.3
2016-10-26T00:51:24.072Z,1018.31
2016-10-26T00:52:36.139Z,1018.32
2016-10-26T00:53:47.771Z,1018.32
2016-10-26T00:54:59.681Z,1018.31
2016-10-26T00:56:10.980Z,1018.29
2016-10-26T00:57:23.123Z,1018.28
2016-10-26T00:58:35.201Z,1018.29
2016-10-26T00:59:47.099Z,1018.29
2016-10-26T01:00:59.154Z,1018.26
2016-10-26T01:02:11.682Z,1018.29
2016-10-26T01:03:22.924Z,1018.31
2016-10-26T01:04:35.208Z,1018.33
2016-10-26T01:05:47.333Z,1018.33
2016-10-26T01:07:00.017Z,1018.31
2016-10-26T01:08:12.091Z,1018.35
2016-10-26T01:09:23.560Z,1018.41
2016-10-26T01:10:35.133Z,1018.42
2016-10-26T01:11:46.767Z,1018.43
2016-10-26T01:12:58.870Z,1018.36
2016-10-26T01:14:10.605Z,1018.42
2016-10-26T01:15:23.226Z,1018.41
2016-10-26T01:16:34.223Z,1018.4
2016-10-26T01:17:45.405Z,1018.42
2016-10-26T01:18:56.178Z,1018.42
2016-10-26T01:20:08.447Z,1018.47
2016-10-26T01:21:19.502Z,1018.51
2016-10-26T01:22:30.656Z,1018.49
2016-10-26T01:23:42.484Z,1018.51
2016-10-26T01:24:54.044Z,1018.51
2016-10-26T01:26:06.229Z,1018.53
2016-10-26T01:27:18.965Z,1018.55
2016-10-26T01:28:31.199Z,1018.57
2016-10-26T01:29:41.375Z,1018.62
2016-10-26T01:30:53.205Z,1018.61
2016-10-26T01:32:05.447Z,1018.6
2016-10-26T01:33:17.999Z,1018.63
2016-10-26T01:34:29.742Z,1018.65
2016-10-26T01:35:41.011Z,1018.64
2016-10-26T01:36:52.805Z,1018.6
2016-10-26T01:38:05.047Z,1018.61
2016-10-26T01:39:16.718Z,1018.58
2016-10-26T01:40:28.778Z,1018.61
2016-10-26T01:41:41.590Z,1018.61
2016-10-26T01:42:54.144Z,1018.61
2016-10-26T01:44:05.362Z,1018.6
2016-10-26T01:45:17.345Z,1018.59
2016-10-26T01:46:29.192Z,1018.54
2016-10-26T01:47:40.175Z,1018.53
2016-10-26T01:48:51.243Z,1018.49
2016-10-26T01:50:04.075Z,1018.48
2016-10-26T01:51:15.765Z,1018.48
2016-10-26T01:52:26.754Z,1018.45
2016-10-26T01:53:39.249Z,1018.47
2016-10-26T01:54:51.062Z,1018.43
2016-10-26T01:56:03.726Z,1018.43
2016-10-26T01:57:15.807Z,1018.41
2016-10-26T01:58:27.437Z,1018.38
2016-10-26T01:59:39.729Z,1018.35
2016-10-26T02:00:51.702Z,1018.33
2016-10-26T02:02:02.914Z,1018.31
2016-10-26T02:03:15.407Z,1018.29
2016-10-26T02:04:27.350Z,1018.26
2016-10-26T02:05:39.144Z,1018.27
2016-10-26T02:06:51.504Z,1018.21
2016-10-26T02:08:04.129Z,1018.19
2016-10-26T02:09:15.705Z,1018.21
2016-10-26T02:10:26.595Z,1018.16
2016-10-26T02:11:37.783Z,1018.15
2016-10-26T02:12:50.102Z,1018.14
2016-10-26T02:14:01.317Z,1018.12
2016-10-26T02:15:11.699Z,1018.1
2016-10-26T02:16:23.286Z,1018.08
2016-10-26T02:17:35.631Z,1018.07
2016-10-26T02:18:46.875Z,1018.06
2016-10-26T02:19:59.374Z,1018.01
2016-10-26T02:21:11.544Z,1018.05
2016-10-26T02:22:22.559Z,1018
2016-10-26T02:23:34.222Z,1018.03
2016-10-26T02:24:46.296Z,1018.01
2016-10-26T02:25:58.974Z,1018.01
2016-10-26T02:27:11.616Z,1017.97
2016-10-26T02:28:22.529Z,1017.96
2016-10-26T02:29:33.496Z,1017.95
2016-10-26T02:30:45.992Z,1017.93
2016-10-26T02:31:57.529Z,1017.97
2016-10-26T02:33:10.249Z,1017.91
2016-10-26T02:34:21.696Z,1017.91
2016-10-26T02:35:34.413Z,1017.89
2016-10-26T02:36:46.434Z,1017.95
2016-10-26T02:37:58.923Z,1017.92
2016-10-26T02:39:10.284Z,1017.92
2016-10-26T02:40:21.559Z,1017.92
2016-10-26T02:41:33.514Z,1017.92
2016-10-26T02:42:43.708Z,1017.92
2016-10-26T02:43:56.297Z,1017.88
2016-10-26T02:45:07.724Z,1017.88
2016-10-26T02:46:19.909Z,1017.91
2016-10-26T02:47:31.381Z,1017.93
2016-10-26T02:48:42.693Z,1017.93
2016-10-26T02:49:53.572Z,1017.93
2016-10-26T02:51:05.676Z,1017.91
2016-10-26T02:52:17.581Z,1017.89
2016-10-26T02:53:29.798Z,1017.91
2016-10-26T02:54:41.970Z,1017.88
2016-10-26T02:55:53.497Z,1017.85
2016-10-26T02:57:04.408Z,1017.92
2016-10-26T02:58:16.778Z,1017.86
2016-10-26T02:59:29.411Z,1017.85
2016-10-26T03:00:41.137Z,1017.82
2016-10-26T03:01:52.966Z,1017.82
2016-10-26T03:03:04.662Z,1017.81
2016-10-26T03:04:16.781Z,1017.81
2016-10-26T03:05:28.351Z,1017.8
2016-10-26T03:06:39.778Z,1017.78
2016-10-26T03:07:51.841Z,1017.79
2016-10-26T03:09:04.002Z,1017.83
2016-10-26T03:10:15.101Z,1017.87
2016-10-26T03:11:26.015Z,1017.87
2016-10-26T03:12:38.276Z,1017.89
2016-10-26T03:13:51.032Z,1017.93
2016-10-26T03:15:03.582Z,1017.93
2016-10-26T03:16:15.832Z,1017.94
2016-10-26T03:17:27.803Z,1017.92
2016-10-26T03:18:39.288Z,1017.95
2016-10-26T03:19:51.503Z,1017.92
2016-10-26T03:21:04.154Z,1017.94
2016-10-26T03:22:16.939Z,1017.95
2016-10-26T03:23:27.067Z,1017.96
2016-10-26T03:24:38.450Z,1017.95
2016-10-26T03:25:50.532Z,1017.96
2016-10-26T03:27:02.456Z,1017.92
2016-10-26T03:28:15.748Z,1017.94
2016-10-26T03:29:26.611Z,1017.9
2016-10-26T03:30:38.903Z,1017.91
2016-10-26T03:31:50.980Z,1017.87
2016-10-26T03:33:01.923Z,1017.86
2016-10-26T03:34:13.466Z,1017.83
2016-10-26T03:35:25.939Z,1017.83
2016-10-26T03:36:38.049Z,1017.81
2016-10-26T03:37:49.374Z,1017.78
2016-10-26T03:39:00.112Z,1017.77
2016-10-26T03:40:11.766Z,1017.84
2016-10-26T03:41:23.886Z,1017.82
2016-10-26T03:42:35.887Z,1017.83
2016-10-26T03:43:48.123Z,1017.85
2016-10-26T03:45:00.296Z,1017.81
2016-10-26T03:46:11.192Z,1017.77
2016-10-26T03:47:23.434Z,1017.75
2016-10-26T03:48:35.493Z,1017.73
2016-10-26T03:49:46.326Z,1017.68
2016-10-26T03:50:57.711Z,1017.67
2016-10-26T03:52:09.407Z,1017.66
2016-10-26T03:53:21.387Z,1017.6
2016-10-26T03:54:32.903Z,1017.61
2016-10-26T03:55:44.592Z,1017.57
2016-10-26T03:56:56.535Z,1017.56
2016-10-26T03:58:08.977Z,1017.55
2016-10-26T03:59:22.052Z,1017.54
2016-10-26T04:00:34.744Z,1017.58
2016-10-26T04:01:47.511Z,1017.6
2016-10-26T04:02:59.820Z,1017.64
2016-10-26T04:04:12.282Z,1017.69
2016-10-26T04:05:23.735Z,1017.69
2016-10-26T04:06:34.622Z,1017.67
2016-10-26T04:07:47.240Z,1017.66
2016-10-26T04:08:58.111Z,1017.69
2016-10-26T04:10:10.225Z,1017.67
2016-10-26T04:11:21.977Z,1017.68
2016-10-26T04:12:35.204Z,1017.72
2016-10-26T04:13:46.443Z,1017.71
2016-10-26T04:14:58.130Z,1017.79
2016-10-26T04:16:09.647Z,1017.84
2016-10-26T04:17:21.389Z,1017.9
2016-10-26T04:18:33.213Z,1017.89
2016-10-26T04:19:45.765Z,1017.89
2016-10-26T04:20:56.917Z,1017.91
2016-10-26T04:22:08.059Z,1017.87
2016-10-26T04:23:19.891Z,1017.84
2016-10-26T04:24:32.555Z,1017.82
2016-10-26T04:25:44.324Z,1017.84
2016-10-26T04:26:56.766Z,1017.82
2016-10-26T04:28:08.700Z,1017.83
2016-10-26T04:29:21.438Z,1017.81
2016-10-26T04:30:33.053Z,1017.83
2016-10-26T04:31:44.482Z,1017.82
2016-10-26T04:32:56.363Z,1017.83
2016-10-26T04:34:08.608Z,1017.84
2016-10-26T04:35:21.467Z,1017.86
2016-10-26T04:36:33.533Z,1017.9
2016-10-26T04:37:45.354Z,1017.92
2016-10-26T04:38:58.205Z,1017.92
2016-10-26T04:40:10.411Z,1017.95
2016-10-26T04:41:22.327Z,1017.96
2016-10-26T04:42:33.721Z,1018
2016-10-26T04:43:46.351Z,1018.01
2016-10-26T04:44:57.116Z,1018.06
2016-10-26T04:46:09.041Z,1018.09
2016-10-26T04:47:20.197Z,1018.14
2016-10-26T04:48:32.539Z,1018.16
2016-10-26T04:49:44.612Z,1018.23
2016-10-26T04:50:57.411Z,1018.3
2016-10-26T04:52:10.540Z,1018.32
2016-10-26T04:53:23.286Z,1018.34
2016-10-26T04:54:34.370Z,1018.36
2016-10-26T04:55:46.624Z,1018.36
2016-10-26T04:56:58.997Z,1018.36
2016-10-26T04:58:10.675Z,1018.34
2016-10-26T04:59:21.483Z,1018.29
2016-10-26T05:00:34.176Z,1018.33
2016-10-26T05:01:46.773Z,1018.33
2016-10-26T05:02:58.788Z,1018.31
2016-10-26T05:04:10.895Z,1018.31
2016-10-26T05:05:22.074Z,1018.29
2016-10-26T05:06:34.519Z,1018.28
2016-10-26T05:07:47.243Z,1018.29
2016-10-26T05:09:00.044Z,1018.31
2016-10-26T05:10:12.827Z,1018.33
2016-10-26T05:11:23.046Z,1018.35
2016-10-26T05:12:34.732Z,1018.35
2016-10-26T05:13:47.260Z,1018.39
2016-10-26T05:14:58.120Z,1018.37
2016-10-26T05:16:11.368Z,1018.39
2016-10-26T05:17:24.069Z,1018.38
2016-10-26T05:18:36.383Z,1018.41
2016-10-26T05:19:48.265Z,1018.43
2016-10-26T05:20:59.646Z,1018.47
2016-10-26T05:22:12.353Z,1018.49
2016-10-26T05:23:24.481Z,1018.5
2016-10-26T05:24:35.502Z,1018.53
2016-10-26T05:25:47.484Z,1018.54
2016-10-26T05:26:59.816Z,1018.57
2016-10-26T05:28:11.589Z,1018.62
2016-10-26T05:29:24.464Z,1018.59
2016-10-26T05:30:35.610Z,1018.63
2016-10-26T05:31:47.768Z,1018.68
2016-10-26T05:32:59.311Z,1018.69
2016-10-26T05:34:12.090Z,1018.72
2016-10-26T05:35:24.921Z,1018.73
2016-10-26T05:36:36.139Z,1018.78
2016-10-26T05:37:47.823Z,1018.79
2016-10-26T05:38:59.517Z,1018.78
2016-10-26T05:40:10.681Z,1018.78
2016-10-26T05:41:22.724Z,1018.76
2016-10-26T05:42:34.780Z,1018.71
2016-10-26T05:43:45.459Z,1018.7
2016-10-26T05:44:58.166Z,1018.7
2016-10-26T05:46:08.766Z,1018.68
2016-10-26T05:47:20.181Z,1018.69
2016-10-26T05:48:32.285Z,1018.72
2016-10-26T05:49:43.724Z,1018.71
2016-10-26T05:50:55.703Z,1018.71
2016-10-26T05:52:07.399Z,1018.73
2016-10-26T05:53:18.545Z,1018.73
2016-10-26T05:54:30.387Z,1018.77
2016-10-26T05:55:42.385Z,1018.79
2016-10-26T05:56:54.679Z,1018.78
2016-10-26T05:58:07.062Z,1018.81
2016-10-26T05:59:19.653Z,1018.82
2016-10-26T06:00:30.906Z,1018.81
2016-10-26T06:01:42.453Z,1018.78
2016-10-26T06:02:53.850Z,1018.81
2016-10-26T06:04:05.733Z,1018.8
2016-10-26T06:05:17.116Z,1018.81
2016-10-26T06:06:28.519Z,1018.83
2016-10-26T06:07:40.297Z,1018.81
2016-10-26T06:08:52.436Z,1018.82
2016-10-26T06:10:05.203Z,1018.79
2016-10-26T06:11:16.139Z,1018.73
2016-10-26T06:12:27.558Z,1018.7
2016-10-26T06:13:38.818Z,1018.67
2016-10-26T06:14:49.692Z,1018.66
2016-10-26T06:16:01.489Z,1018.68
2016-10-26T06:17:14.766Z,1018.68
2016-10-26T06:18:27.582Z,1018.69
2016-10-26T06:19:40.271Z,1018.74
2016-10-26T06:20:51.985Z,1018.71
2016-10-26T06:22:03.743Z,1018.72
2016-10-26T06:23:15.340Z,1018.73
2016-10-26T06:24:27.403Z,1018.73
2016-10-26T06:25:39.979Z,1018.76
2016-10-26T06:26:51.031Z,1018.78
2016-10-26T06:28:02.006Z,1018.77
2016-10-26T06:29:14.066Z,1018.79
2016-10-26T06:30:24.346Z,1018.79
2016-10-26T06:31:35.967Z,1018.8
2016-10-26T06:32:46.015Z,1018.84
2016-10-26T06:33:57.443Z,1018.87
2016-10-26T06:35:10.207Z,1018.91
2016-10-26T06:36:21.892Z,1018.93
2016-10-26T06:37:35.134Z,1018.96
2016-10-26T06:38:47.606Z,1019
2016-10-26T06:39:59.991Z,1019.01
2016-10-26T06:41:12.493Z,1019.01
2016-10-26T06:42:24.013Z,1019.07
2016-10-26T06:43:35.499Z,1019.11
2016-10-26T06:44:46.785Z,1019.16
2016-10-26T06:45:58.161Z,1019.19
2016-10-26T06:47:11.385Z,1019.23
2016-10-26T06:48:24.320Z,1019.31
2016-10-26T06:49:36.406Z,1019.35
2016-10-26T06:50:48.988Z,1019.38
2016-10-26T06:52:02.238Z,1019.43
2016-10-26T06:53:13.797Z,1019.47
2016-10-26T06:54:23.846Z,1019.5
2016-10-26T06:55:35.272Z,1019.53
2016-10-26T06:56:45.804Z,1019.56
2016-10-26T06:57:58.442Z,1019.62
2016-10-26T06:59:10.564Z,1019.68
2016-10-26T07:00:21.496Z,1019.71
2016-10-26T07:01:32.649Z,1019.71
2016-10-26T07:02:45.347Z,1019.81
2016-10-26T07:03:57.283Z,1019.85
2016-10-26T07:05:09.204Z,1019.94
2016-10-26T07:06:21.141Z,1019.96
2016-10-26T07:07:33.284Z,1019.99
2016-10-26T07:08:44.980Z,1020.03
2016-10-26T07:09:57.463Z,1020.06
2016-10-26T07:11:07.768Z,1020.1
2016-10-26T07:12:22.674Z,1020.16
2016-10-26T07:13:34.591Z,1020.19
2016-10-26T07:14:45.440Z,1020.19
2016-10-26T07:15:58.201Z,1020.22
2016-10-26T07:17:10.696Z,1020.25
2016-10-26T07:18:22.177Z,1020.28
2016-10-26T07:19:34.258Z,1020.36
2016-10-26T07:20:45.581Z,1020.38
2016-10-26T07:21:56.198Z,1020.39
2016-10-26T07:23:07.595Z,1020.41
2016-10-26T07:24:20.090Z,1020.44
2016-10-26T07:25:31.173Z,1020.43
2016-10-26T07:26:42.544Z,1020.43
2016-10-26T07:27:53.401Z,1020.44
2016-10-26T07:29:05.371Z,1020.45
2016-10-26T07:30:16.849Z,1020.42
2016-10-26T07:31:28.849Z,1020.48
2016-10-26T07:32:40.472Z,1020.41
2016-10-26T07:33:53.397Z,1020.46
2016-10-26T07:35:05.013Z,1020.55
2016-10-26T07:36:16.401Z,1020.56
2016-10-26T07:37:28.446Z,1020.62
2016-10-26T07:38:40.628Z,1020.71
2016-10-26T07:39:52.445Z,1020.75
2016-10-26T07:41:03.577Z,1020.75
2016-10-26T07:42:15.356Z,1020.72
2016-10-26T07:43:28.033Z,1020.75
2016-10-26T07:44:40.540Z,1020.73
2016-10-26T07:45:52.364Z,1020.75
2016-10-26T07:47:04.550Z,1020.71
2016-10-26T07:48:16.797Z,1020.8
2016-10-26T07:49:29.119Z,1020.81
2016-10-26T07:50:41.806Z,1020.83
2016-10-26T07:51:54.678Z,1020.86
2016-10-26T07:53:07.182Z,1020.91
2016-10-26T07:54:19.182Z,1020.87
2016-10-26T07:55:31.692Z,1020.87
2016-10-26T07:56:43.107Z,1020.87
2016-10-26T07:57:55.266Z,1020.86
2016-10-26T07:59:07.698Z,1020.86
2016-10-26T08:00:19.847Z,1020.86
2016-10-26T08:01:31.197Z,1020.88
2016-10-26T08:02:42.901Z,1020.89
2016-10-26T08:03:53.710Z,1020.89
2016-10-26T08:05:05.850Z,1020.94
2016-10-26T08:06:18.078Z,1020.95
2016-10-26T08:07:30.119Z,1021.02
2016-10-26T08:08:41.745Z,1021.01
2016-10-26T08:09:54.184Z,1021.04
2016-10-26T08:11:05.552Z,1021.05
2016-10-26T08:12:18.279Z,1021.09
2016-10-26T08:13:30.470Z,1021.15
2016-10-26T08:14:43.437Z,1021.15
2016-10-26T08:15:55.624Z,1021.13
2016-10-26T08:17:05.713Z,1021.15
2016-10-26T08:18:17.940Z,1021.11
2016-10-26T08:19:29.818Z,1021.16
2016-10-26T08:20:41.238Z,1021.19
2016-10-26T08:21:52.085Z,1021.2
2016-10-26T08:23:02.876Z,1021.23
2016-10-26T08:24:15.124Z,1021.22
2016-10-26T08:25:27.724Z,1021.2
2016-10-26T08:26:39.885Z,1021.19
2016-10-26T08:27:50.746Z,1021.22
2016-10-26T08:29:01.627Z,1021.18
2016-10-26T08:30:13.851Z,1021.22
2016-10-26T08:31:26.178Z,1021.24
2016-10-26T08:32:38.857Z,1021.29
2016-10-26T08:33:50.927Z,1021.25
2016-10-26T08:35:02.063Z,1021.31
2016-10-26T08:36:14.300Z,1021.33
2016-10-26T08:37:26.951Z,1021.35
2016-10-26T08:38:36.897Z,1021.37
2016-10-26T08:39:48.241Z,1021.35
2016-10-26T08:41:00.197Z,1021.35
2016-10-26T08:42:12.196Z,1021.33
2016-10-26T08:43:24.360Z,1021.31
2016-10-26T08:44:35.002Z,1021.3
2016-10-26T08:45:46.984Z,1021.3
2016-10-26T08:46:58.405Z,1021.36
2016-10-26T08:48:10.479Z,1021.35
2016-10-26T08:49:22.670Z,1021.37
2016-10-26T08:50:32.870Z,1021.41
2016-10-26T08:51:45.462Z,1021.42
2016-10-26T08:52:57.966Z,1021.39
2016-10-26T08:54:09.733Z,1021.4
2016-10-26T08:55:21.491Z,1021.36
2016-10-26T08:56:33.975Z,1021.35
2016-10-26T08:57:45.265Z,1021.38
2016-10-26T08:58:56.537Z,1021.36
2016-10-26T09:00:07.906Z,1021.33
2016-10-26T09:01:19.933Z,1021.38
2016-10-26T09:02:32.384Z,1021.41
2016-10-26T09:03:45.262Z,1021.48
2016-10-26T09:04:56.882Z,1021.49
2016-10-26T09:06:08.831Z,1021.49
2016-10-26T09:07:20.112Z,1021.48
2016-10-26T09:08:30.706Z,1021.44
2016-10-26T09:09:41.211Z,1021.38
2016-10-26T09:10:52.569Z,1021.38
2016-10-26T09:12:02.936Z,1021.39
2016-10-26T09:13:14.865Z,1021.34
2016-10-26T09:14:25.808Z,1021.38
2016-10-26T09:15:36.758Z,1021.27
2016-10-26T09:16:48.870Z,1021.29
2016-10-26T09:18:00.070Z,1021.22
2016-10-26T09:19:12.315Z,1021.25
2016-10-26T09:20:23.265Z,1021.27
2016-10-26T09:21:33.927Z,1021.26
2016-10-26T09:22:45.972Z,1021.23
2016-10-26T09:23:57.008Z,1021.18
2016-10-26T09:25:09.202Z,1021.18
2016-10-26T09:26:21.199Z,1021.21
2016-10-26T09:27:31.124Z,1021.19
2016-10-26T09:28:42.482Z,1021.19
2016-10-26T09:29:54.700Z,1021.18
2016-10-26T09:31:05.835Z,1021.2
2016-10-26T09:32:17.339Z,1021.17
2016-10-26T09:33:28.647Z,1021.2
2016-10-26T09:34:41.312Z,1021.18
2016-10-26T09:35:53.196Z,1021.22
2016-10-26T09:37:05.007Z,1021.21
2016-10-26T09:38:17.641Z,1021.24
2016-10-26T09:39:29.477Z,1021.28
2016-10-26T09:40:40.151Z,1021.31
2016-10-26T09:41:50.733Z,1021.35
2016-10-26T09:43:01.942Z,1021.33
2016-10-26T09:44:12.607Z,1021.34
2016-10-26T09:45:24.665Z,1021.33
2016-10-26T09:46:36.859Z,1021.28
2016-10-26T09:47:48.323Z,1021.31
2016-10-26T09:48:59.193Z,1021.33
2016-10-26T09:50:12.183Z,1021.32
2016-10-26T09:51:24.762Z,1021.33
2016-10-26T09:52:37.210Z,1021.36
2016-10-26T09:53:48.825Z,1021.36
2016-10-26T09:55:00.775Z,1021.38
2016-10-26T09:56:13.461Z,1021.4
2016-10-26T09:57:24.599Z,1021.35
2016-10-26T09:58:35.072Z,1021.38
2016-10-26T09:59:48.278Z,1021.43
2016-10-26T10:00:59.971Z,1021.42
2016-10-26T10:02:12.469Z,1021.44
2016-10-26T10:03:23.502Z,1021.44
2016-10-26T10:04:36.084Z,1021.43
2016-10-26T10:05:48.795Z,1021.49
2016-10-26T10:07:00.902Z,1021.5
2016-10-26T10:08:11.768Z,1021.51
2016-10-26T10:09:22.914Z,1021.57
2016-10-26T10:10:34.171Z,1021.56
2016-10-26T10:11:46.591Z,1021.57
2016-10-26T10:12:57.790Z,1021.61
2016-10-26T10:14:09.795Z,1021.61
2016-10-26T10:15:22.019Z,1021.61
2016-10-26T10:16:33.368Z,1021.61
2016-10-26T10:17:45.893Z,1021.63
2016-10-26T10:18:57.588Z,1021.63
2016-10-26T10:20:09.765Z,1021.64
2016-10-26T10:21:21.455Z,1021.64
2016-10-26T10:22:33.416Z,1021.63
2016-10-26T10:23:46.182Z,1021.65
2016-10-26T10:24:58.141Z,1021.67
2016-10-26T10:26:10.714Z,1021.63
2016-10-26T10:27:21.185Z,1021.65
2016-10-26T10:28:31.851Z,1021.63
2016-10-26T10:29:43.141Z,1021.6
2016-10-26T10:30:56.270Z,1021.58
2016-10-26T10:32:08.571Z,1021.57
2016-10-26T10:33:20.409Z,1021.56
2016-10-26T10:34:33.567Z,1021.6
2016-10-26T10:35:45.609Z,1021.6
2016-10-26T10:36:57.093Z,1021.56
2016-10-26T10:38:08.489Z,1021.57
2016-10-26T10:39:19.640Z,1021.56
2016-10-26T10:40:30.818Z,1021.62
2016-10-26T10:41:42.504Z,1021.67
2016-10-26T10:42:54.649Z,1021.66
2016-10-26T10:44:05.184Z,1021.71
2016-10-26T10:45:16.675Z,1021.67
2016-10-26T10:46:28.392Z,1021.65
2016-10-26T10:47:40.359Z,1021.64
2016-10-26T10:48:52.189Z,1021.64
2016-10-26T10:50:03.129Z,1021.59
2016-10-26T10:51:14.274Z,1021.56
2016-10-26T10:52:27.469Z,1021.53
2016-10-26T10:53:38.022Z,1021.55
2016-10-26T10:54:49.368Z,1021.52
2016-10-26T10:56:01.947Z,1021.5
2016-10-26T10:57:14.531Z,1021.52
2016-10-26T10:58:26.278Z,1021.54
2016-10-26T10:59:38.464Z,1021.54
2016-10-26T11:00:50.425Z,1021.51
2016-10-26T11:02:03.072Z,1021.48
2016-10-26T11:03:15.032Z,1021.46
2016-10-26T11:04:26.592Z,1021.45
2016-10-26T11:05:37.788Z,1021.43
2016-10-26T11:06:50.228Z,1021.46
2016-10-26T11:08:01.717Z,1021.42
2016-10-26T11:09:13.284Z,1021.46
2016-10-26T11:10:25.493Z,1021.47
2016-10-26T11:11:37.946Z,1021.46
2016-10-26T11:12:49.576Z,1021.46
2016-10-26T11:14:00.446Z,1021.49
2016-10-26T11:15:12.407Z,1021.53
2016-10-26T11:16:24.738Z,1021.52
2016-10-26T11:17:36.720Z,1021.53
2016-10-26T11:18:48.541Z,1021.51
2016-10-26T11:20:00.699Z,1021.49
2016-10-26T11:21:12.917Z,1021.51
2016-10-26T11:22:24.118Z,1021.5
2016-10-26T11:23:36.705Z,1021.48
2016-10-26T11:24:48.828Z,1021.41
2016-10-26T11:25:59.986Z,1021.44
2016-10-26T11:27:11.774Z,1021.41
2016-10-26T11:28:24.500Z,1021.37
2016-10-26T11:29:35.314Z,1021.33
2016-10-26T11:30:46.935Z,1021.34
2016-10-26T11:31:58.353Z,1021.39
2016-10-26T11:33:10.196Z,1021.36
2016-10-26T11:34:21.186Z,1021.37
2016-10-26T11:35:32.870Z,1021.38
2016-10-26T11:36:44.732Z,1021.36
2016-10-26T11:37:56.228Z,1021.3
2016-10-26T11:39:07.841Z,1021.28
2016-10-26T11:40:18.896Z,1021.32
2016-10-26T11:41:31.151Z,1021.25
2016-10-26T11:42:43.784Z,1021.24
2016-10-26T11:43:55.503Z,1021.27
2016-10-26T11:45:06.300Z,1021.26
2016-10-26T11:46:18.384Z,1021.28
2016-10-26T11:47:29.859Z,1021.31
2016-10-26T11:48:42.447Z,1021.28
2016-10-26T11:49:53.387Z,1021.3
2016-10-26T11:51:05.790Z,1021.3
2016-10-26T11:52:17.432Z,1021.29
2016-10-26T11:53:29.050Z,1021.27
2016-10-26T11:54:40.957Z,1021.27
2016-10-26T11:55:52.409Z,1021.2
2016-10-26T11:57:05.560Z,1021.18
2016-10-26T11:58:17.100Z,1021.17
2016-10-26T11:59:30.241Z,1021.14
2016-10-26T12:00:41.134Z,1021.12
2016-10-26T12:01:52.139Z,1021.1
2016-10-26T12:03:04.644Z,1021.12
2016-10-26T12:04:17.348Z,1021.09
2016-10-26T12:05:29.160Z,1021.07
2016-10-26T12:06:40.781Z,1021.06
2016-10-26T12:07:51.936Z,1021.05
2016-10-26T12:09:04.098Z,1020.99
2016-10-26T12:10:15.319Z,1020.99
2016-10-26T12:11:26.477Z,1021
2016-10-26T12:12:38.991Z,1020.99
2016-10-26T12:13:52.095Z,1020.97
2016-10-26T12:15:04.686Z,1020.94
2016-10-26T12:16:16.318Z,1020.93
2016-10-26T12:17:28.080Z,1020.97
2016-10-26T12:18:39.560Z,1020.92
2016-10-26T12:19:50.636Z,1020.95
2016-10-26T12:21:03.288Z,1020.94
2016-10-26T12:22:15.857Z,1020.89
2016-10-26T12:23:27.312Z,1020.85
2016-10-26T12:24:38.450Z,1020.87
2016-10-26T12:25:50.077Z,1020.87
2016-10-26T12:27:02.233Z,1020.87
2016-10-26T12:28:13.381Z,1020.87
2016-10-26T12:29:25.895Z,1020.86
2016-10-26T12:30:38.937Z,1020.85
2016-10-26T12:31:50.743Z,1020.87
2016-10-26T12:33:01.880Z,1020.83
2016-10-26T12:34:13.224Z,1020.8
2016-10-26T12:35:24.934Z,1020.78
2016-10-26T12:36:38.060Z,1020.8
2016-10-26T12:37:51.081Z,1020.79
2016-10-26T12:39:03.274Z,1020.78
2016-10-26T12:40:14.767Z,1020.76
2016-10-26T12:41:26.943Z,1020.77
2016-10-26T12:42:39.128Z,1020.69
2016-10-26T12:43:49.582Z,1020.68
2016-10-26T12:45:02.289Z,1020.74
2016-10-26T12:46:13.086Z,1020.7
2016-10-26T12:47:24.101Z,1020.75
2016-10-26T12:48:35.547Z,1020.74
2016-10-26T12:49:47.355Z,1020.71
2016-10-26T12:50:59.451Z,1020.72
2016-10-26T12:52:11.364Z,1020.68
2016-10-26T12:53:23.543Z,1020.67
2016-10-26T12:54:36.683Z,1020.69
2016-10-26T12:55:47.725Z,1020.75
2016-10-26T12:57:00.373Z,1020.72
2016-10-26T12:58:11.260Z,1020.72
2016-10-26T12:59:23.386Z,1020.76
2016-10-26T13:00:34.946Z,1020.69
2016-10-26T13:01:47.122Z,1020.7
2016-10-26T13:02:58.641Z,1020.68
2016-10-26T13:04:10.467Z,1020.65
2016-10-26T13:05:22.188Z,1020.64
2016-10-26T13:06:34.305Z,1020.67
2016-10-26T13:07:45.877Z,1020.63
2016-10-26T13:08:57.264Z,1020.65
2016-10-26T13:10:09.202Z,1020.65
2016-10-26T13:11:21.254Z,1020.65
2016-10-26T13:12:32.280Z,1020.67
2016-10-26T13:13:43.477Z,1020.68
2016-10-26T13:14:55.674Z,1020.66
2016-10-26T13:16:08.152Z,1020.66
2016-10-26T13:17:19.104Z,1020.62
2016-10-26T13:18:30.597Z,1020.61
2016-10-26T13:19:42.843Z,1020.6
2016-10-26T13:20:55.155Z,1020.52
2016-10-26T13:22:05.743Z,1020.52
2016-10-26T13:23:17.898Z,1020.45
2016-10-26T13:24:30.083Z,1020.43
2016-10-26T13:25:42.594Z,1020.4
2016-10-26T13:26:54.513Z,1020.42
2016-10-26T13:28:07.197Z,1020.4
2016-10-26T13:29:18.361Z,1020.43
2016-10-26T13:30:30.892Z,1020.49
2016-10-26T13:31:44.072Z,1020.51
2016-10-26T13:32:56.672Z,1020.48
2016-10-26T13:34:08.039Z,1020.51
2016-10-26T13:35:19.405Z,1020.45
2016-10-26T13:36:31.283Z,1020.46
2016-10-26T13:37:42.971Z,1020.36
2016-10-26T13:38:54.445Z,1020.38
2016-10-26T13:40:06.553Z,1020.34
2016-10-26T13:41:18.161Z,1020.28
2016-10-26T13:42:30.027Z,1020.31
2016-10-26T13:43:41.386Z,1020.31
2016-10-26T13:44:52.083Z,1020.31
2016-10-26T13:46:03.713Z,1020.29
2016-10-26T13:47:15.351Z,1020.26
2016-10-26T13:48:27.107Z,1020.29
2016-10-26T13:49:39.714Z,1020.34
2016-10-26T13:50:51.744Z,1020.31
2016-10-26T13:52:02.779Z,1020.34
2016-10-26T13:53:14.953Z,1020.38
2016-10-26T13:54:26.316Z,1020.41
2016-10-26T13:55:37.677Z,1020.4
2016-10-26T13:56:49.167Z,1020.38
2016-10-26T13:58:01.664Z,1020.45
2016-10-26T13:59:13.625Z,1020.46
2016-10-26T14:00:26.013Z,1020.45
2016-10-26T14:01:37.818Z,1020.43
2016-10-26T14:02:49.009Z,1020.42
2016-10-26T14:04:00.624Z,1020.42
2016-10-26T14:05:11.015Z,1020.42
2016-10-26T14:06:21.937Z,1020.47
2016-10-26T14:07:33.089Z,1020.48
2016-10-26T14:08:46.230Z,1020.49
2016-10-26T14:09:57.861Z,1020.49
2016-10-26T14:11:10.525Z,1020.5
2016-10-26T14:12:21.952Z,1020.58
2016-10-26T14:13:33.642Z,1020.57
2016-10-26T14:14:45.197Z,1020.62
2016-10-26T14:15:56.337Z,1020.62
2016-10-26T14:17:07.477Z,1020.65
2016-10-26T14:18:18.871Z,1020.62
2016-10-26T14:19:31.528Z,1020.66
2016-10-26T14:20:42.940Z,1020.64
2016-10-26T14:21:54.421Z,1020.64
2016-10-26T14:23:06.304Z,1020.64
2016-10-26T14:24:18.336Z,1020.71
2016-10-26T14:25:30.525Z,1020.7
2016-10-26T14:26:43.197Z,1020.71
2016-10-26T14:27:55.233Z,1020.69
2016-10-26T14:29:07.194Z,1020.7
2016-10-26T14:30:18.457Z,1020.7
2016-10-26T14:31:29.860Z,1020.71